Hampton, Illinois
Current Conditions -  °F | °C
As of 2:52 AM on Thursday 23 Oct 2014 (Local Time) from KDVN Reporting Station
Clear Clear  
Wind Chill: 38°   Ceiling: Unl
Heat Index: 43°   Visibility: 10mi
Dew Point: 35°   Wind: 8mph
Humidity: 74%   Direction: 150°SSE
Pressure: 30.18"   Gusts: NA
Location:  41.56°N, 90.41°W
Report Text: KDVN 230752Z AUTO 15007KT 10SM CLR 06/02 A3018 RMK AO2 SLP221 T00610017 TSNO
Loading
Personal Weather Stations






























Interactive Weather Map
Tropical Storm Tracking
New forecast layout! Learn more

10-Day Weather Forecast

Advertisements
Track Severe Weather on mobile